Hovedside
METAR-TAF:

METAR-TAF

Lufthavner :

Norrköping lufthavn

Norrköping, Sverige

breddegrad: 58-35N, lengdegrad: 016-09E, høyde over havet: 34 m

Gjeldene værobservasjon

Denne rapporten ble laget for 29 minutter siden, klokken 09:20 UTC
Vind 7 kt fra Vest-sørvest
Temperatur 15°C
Luftfuktighet 72%
Trykk 1008 hPa
Sikt 10 km eller mer
Overskyet i en høyde av 2200 ft

METAR: ESSP 190920Z 25007KT 9999 OVC022 15/10 Q1008

Tid: 11:49 (09:49 UTC)

Varsel

Denne rapporten ble laget for 1 time og 19 minutter siden, klokken 08:30 UTC
Varsel gyldig fra 19. klokken 09 UTC til 19. klokken 15 UTC
Vind 10 kt fra Vest
Sikt 10 km eller mer
Brutte skyer i en høyde av 3000 ft
Midlertidig
fra 19. klokken 13 UTC til 19. klokken 14 UTC
Spredte skyer i en høyde av 3000 ft, Tårnskyer (cumulus).
Midlertidig
fra 19. klokken 14 UTC til 19. klokken 15 UTC
Spredte skyer i en høyde av 4000 ft, Bygeskyer.
regnbyger,

TAF: ESSP 190830Z 1909/1915 26010KT 9999 BKN030 TEMPO 1913/1914 SCT030TCU TEMPO 1914/1915 SHRA SCT040CB

Værobservasjoner og værvarsel for over 4000 flyplasser (METAR- og TAF-rapporter).

Tilgjengelige stasjoner er representert av de røde og gule prikkene på kartet.

Hold musepekeren over prikken for å se navnet på stasjonen.

Klikk så for å se værobservasjoner og -varsler.

For å forandre kartet kan du klikke på den grønne knappen med svart kryss for å zoome inn, på den grønne knappen med strek for å zoome ut, eller på de grønne pilene for å se tilstøtende kart.


METAR-TAF: